createdAt,value
2022-08-14T00:01:32.568Z,21.20
2022-08-14T00:03:59.575Z,21.20
2022-08-14T00:06:29.250Z,21.10
2022-08-14T00:08:59.011Z,21.00
2022-08-14T00:11:31.186Z,21.00
2022-08-14T00:14:01.528Z,20.90
2022-08-14T00:16:40.975Z,20.90
2022-08-14T00:19:19.258Z,20.80
2022-08-14T00:21:51.088Z,20.70
2022-08-14T00:24:23.283Z,20.70
2022-08-14T00:27:02.290Z,20.70
2022-08-14T00:29:33.104Z,20.70
2022-08-14T00:32:52.447Z,20.70
2022-08-14T00:34:56.547Z,20.60
2022-08-14T00:37:23.502Z,20.60
2022-08-14T00:39:51.096Z,20.60
2022-08-14T00:42:55.158Z,20.50
2022-08-14T00:45:12.192Z,20.50
2022-08-14T00:47:45.498Z,20.40
2022-08-14T00:50:17.890Z,20.40
2022-08-14T00:52:50.833Z,20.40
2022-08-14T00:55:20.984Z,20.40
2022-08-14T00:58:09.062Z,20.40
2022-08-14T01:00:37.374Z,20.30
2022-08-14T01:03:19.018Z,20.30
2022-08-14T01:05:52.000Z,20.30
2022-08-14T01:08:51.626Z,20.30
2022-08-14T01:11:19.211Z,20.30
2022-08-14T01:13:55.730Z,20.20
2022-08-14T01:16:30.852Z,20.20
2022-08-14T01:19:17.341Z,20.20
2022-08-14T01:21:53.576Z,20.20
2022-08-14T01:24:22.928Z,20.20
2022-08-14T01:27:00.104Z,20.20
2022-08-14T01:29:58.300Z,20.20
2022-08-14T01:32:22.543Z,20.20
2022-08-14T01:35:21.145Z,20.20
2022-08-14T01:37:56.386Z,20.20
2022-08-14T01:40:36.985Z,20.20
2022-08-14T01:43:14.223Z,20.20
2022-08-14T01:45:41.202Z,20.10
2022-08-14T01:48:13.173Z,20.10
2022-08-14T01:50:42.113Z,20.00
2022-08-14T01:53:10.555Z,20.00
2022-08-14T01:55:40.401Z,19.90
2022-08-14T01:58:18.942Z,19.90
2022-08-14T02:00:53.949Z,19.90
2022-08-14T02:03:21.197Z,19.80
2022-08-14T02:05:49.554Z,19.80
2022-08-14T02:08:16.980Z,19.80
2022-08-14T02:11:09.574Z,19.80
2022-08-14T02:13:37.212Z,19.70
2022-08-14T02:16:21.957Z,19.70
2022-08-14T02:18:49.907Z,19.60
2022-08-14T02:21:19.255Z,19.60
2022-08-14T02:23:48.059Z,19.60
2022-08-14T02:26:29.279Z,19.60
2022-08-14T02:29:04.625Z,19.50
2022-08-14T02:31:43.429Z,19.50
2022-08-14T02:34:22.541Z,19.50
2022-08-14T02:37:03.385Z,19.40
2022-08-14T02:39:34.561Z,19.40
2022-08-14T02:42:04.193Z,19.40
2022-08-14T02:44:31.497Z,19.30
2022-08-14T02:47:14.966Z,19.30
2022-08-14T02:49:42.834Z,19.20
2022-08-14T02:52:26.857Z,19.30
2022-08-14T02:54:57.496Z,19.20
2022-08-14T02:57:40.078Z,19.20
2022-08-14T03:00:09.818Z,19.20
2022-08-14T03:02:56.085Z,19.20
2022-08-14T03:05:24.412Z,19.20
2022-08-14T03:07:52.867Z,19.10
2022-08-14T03:10:25.850Z,19.10
2022-08-14T03:12:55.534Z,19.10
2022-08-14T03:15:22.456Z,19.10
2022-08-14T03:17:56.831Z,19.10
2022-08-14T03:20:30.187Z,19.00
2022-08-14T03:23:02.913Z,19.00
2022-08-14T03:25:33.312Z,18.90
2022-08-14T03:28:03.985Z,18.90
2022-08-14T03:30:39.856Z,18.80
2022-08-14T03:33:12.568Z,18.80
2022-08-14T03:35:59.938Z,18.80
2022-08-14T03:39:13.080Z,18.70
2022-08-14T03:41:18.431Z,18.70
2022-08-14T03:43:57.838Z,18.70
2022-08-14T03:46:52.788Z,18.60
2022-08-14T03:49:29.394Z,18.60
2022-08-14T03:51:58.313Z,18.60
2022-08-14T03:54:28.357Z,18.60
2022-08-14T03:57:00.564Z,18.60
2022-08-14T03:59:31.857Z,18.60
2022-08-14T04:02:02.225Z,18.50
2022-08-14T04:04:33.647Z,18.40
2022-08-14T04:07:01.076Z,18.40
2022-08-14T04:09:29.303Z,18.50
2022-08-14T04:11:58.227Z,18.50
2022-08-14T04:14:26.610Z,18.50
2022-08-14T04:16:53.480Z,18.50
2022-08-14T04:19:23.725Z,18.30
2022-08-14T04:22:03.224Z,18.40
2022-08-14T04:24:37.843Z,18.40
2022-08-14T04:27:09.749Z,18.40
2022-08-14T04:29:42.687Z,18.50
2022-08-14T04:33:02.651Z,18.50
2022-08-14T04:34:57.764Z,18.50
2022-08-14T04:37:45.295Z,18.50
2022-08-14T04:40:32.589Z,18.50
2022-08-14T04:43:21.044Z,18.50
2022-08-14T04:45:50.979Z,18.50
2022-08-14T04:48:39.027Z,18.50
2022-08-14T04:51:13.424Z,18.50
2022-08-14T04:53:43.743Z,18.50
2022-08-14T04:56:31.492Z,18.50
2022-08-14T04:59:10.301Z,18.50
2022-08-14T05:01:41.789Z,18.40
2022-08-14T05:04:16.415Z,18.50
2022-08-14T05:06:49.206Z,18.50
2022-08-14T05:09:17.127Z,18.50
2022-08-14T05:11:44.850Z,18.60
2022-08-14T05:14:33.724Z,18.50
2022-08-14T05:17:01.889Z,18.60
2022-08-14T05:19:32.510Z,18.60
2022-08-14T05:22:16.764Z,18.60
2022-08-14T05:24:50.559Z,18.60
2022-08-14T05:27:22.218Z,18.70
2022-08-14T05:29:50.705Z,18.70
2022-08-14T05:32:17.820Z,18.70
2022-08-14T05:34:45.729Z,18.70
2022-08-14T05:37:13.247Z,18.80
2022-08-14T05:39:42.863Z,18.90
2022-08-14T05:42:21.395Z,18.90
2022-08-14T05:44:49.432Z,18.90
2022-08-14T05:47:20.955Z,19.00
2022-08-14T05:49:48.271Z,19.00
2022-08-14T05:52:17.979Z,19.00
2022-08-14T05:54:45.110Z,19.00
2022-08-14T05:57:13.205Z,19.10
2022-08-14T05:59:41.905Z,19.20
2022-08-14T06:02:09.894Z,19.20
2022-08-14T06:04:37.464Z,19.20
2022-08-14T06:07:04.456Z,19.20
2022-08-14T06:09:35.650Z,19.30
2022-08-14T06:12:03.327Z,19.30
2022-08-14T06:14:31.226Z,19.40
2022-08-14T06:16:58.787Z,19.40
2022-08-14T06:19:26.485Z,19.40
2022-08-14T06:21:59.063Z,19.50
2022-08-14T06:24:27.386Z,19.60
2022-08-14T06:27:04.649Z,19.60
2022-08-14T06:29:34.894Z,19.70
2022-08-14T06:32:38.282Z,19.70
2022-08-14T06:35:11.452Z,19.80
2022-08-14T06:37:46.792Z,19.80
2022-08-14T06:40:26.885Z,19.90
2022-08-14T06:43:00.445Z,20.00
2022-08-14T06:45:38.706Z,20.00
2022-08-14T06:48:14.554Z,20.10
2022-08-14T06:50:45.503Z,20.20
2022-08-14T06:53:14.660Z,20.20
2022-08-14T06:55:53.296Z,20.30
2022-08-14T06:58:29.397Z,20.30
2022-08-14T07:01:20.359Z,20.40
2022-08-14T07:04:18.899Z,20.40
2022-08-14T07:06:50.520Z,20.50
2022-08-14T07:09:22.653Z,20.50
2022-08-14T07:11:51.632Z,20.60
2022-08-14T07:14:18.568Z,20.60
2022-08-14T07:16:45.333Z,20.60
2022-08-14T07:19:12.300Z,20.70
2022-08-14T07:21:39.677Z,20.70
2022-08-14T07:24:09.759Z,20.80
2022-08-14T07:26:53.556Z,20.80
2022-08-14T07:29:26.054Z,20.80
2022-08-14T07:31:53.929Z,20.90
2022-08-14T07:34:35.957Z,20.90
2022-08-14T07:37:04.650Z,20.90
2022-08-14T07:39:34.505Z,20.90
2022-08-14T07:42:02.281Z,21.00
2022-08-14T07:44:35.914Z,21.00
2022-08-14T07:47:12.911Z,21.00
2022-08-14T07:49:41.539Z,21.00
2022-08-14T07:52:10.613Z,21.00
2022-08-14T07:54:41.393Z,21.00
2022-08-14T07:57:12.086Z,21.10
2022-08-14T07:59:43.780Z,21.10
2022-08-14T08:02:18.628Z,21.10
2022-08-14T08:04:49.513Z,21.10
2022-08-14T08:07:16.968Z,21.20
2022-08-14T08:09:51.015Z,21.20
2022-08-14T08:12:24.931Z,21.20
2022-08-14T08:15:03.040Z,21.20
2022-08-14T08:17:38.990Z,21.30
2022-08-14T08:20:16.140Z,21.30
2022-08-14T08:22:56.464Z,21.30
2022-08-14T08:25:28.963Z,21.40
2022-08-14T08:28:00.557Z,21.40
2022-08-14T08:30:49.515Z,21.30
2022-08-14T08:33:18.576Z,21.40
2022-08-14T08:35:50.843Z,21.50
2022-08-14T08:39:14.721Z,21.50
2022-08-14T08:41:11.229Z,21.50
2022-08-14T08:43:39.313Z,21.60
2022-08-14T08:46:23.514Z,21.60
2022-08-14T08:51:42.810Z,21.70
2022-08-14T08:54:18.668Z,21.70
2022-08-14T08:56:48.368Z,21.70
2022-08-14T08:59:27.352Z,21.70
2022-08-14T09:02:05.064Z,21.80
2022-08-14T09:04:53.490Z,21.90
2022-08-14T09:07:27.326Z,21.90
2022-08-14T09:09:59.379Z,22.00
2022-08-14T09:12:32.370Z,21.90
2022-08-14T09:15:11.764Z,22.00
2022-08-14T09:17:42.347Z,22.10
2022-08-14T09:20:14.020Z,22.10
2022-08-14T09:22:55.053Z,22.20
2022-08-14T09:25:59.633Z,22.20
2022-08-14T09:28:09.370Z,22.30
2022-08-14T09:30:40.188Z,22.30
2022-08-14T09:33:35.529Z,22.40
2022-08-14T09:36:46.614Z,22.40
2022-08-14T09:39:25.609Z,22.50
2022-08-14T09:42:21.369Z,22.50
2022-08-14T09:45:16.857Z,22.50
2022-08-14T09:47:52.174Z,22.60
2022-08-14T09:50:25.780Z,22.60
2022-08-14T09:52:58.873Z,22.70
2022-08-14T09:55:28.194Z,22.70
2022-08-14T09:58:19.872Z,22.80
2022-08-14T10:01:00.508Z,22.90
2022-08-14T10:03:33.875Z,22.90
2022-08-14T10:06:09.926Z,23.00
2022-08-14T10:08:48.917Z,23.10
2022-08-14T10:11:23.481Z,23.10
2022-08-14T10:13:54.343Z,23.20
2022-08-14T10:16:33.678Z,23.20
2022-08-14T10:19:10.929Z,23.30
2022-08-14T10:23:12.018Z,23.40
2022-08-14T10:24:37.300Z,23.50
2022-08-14T10:27:16.266Z,23.60
2022-08-14T10:29:54.431Z,23.60
2022-08-14T10:32:29.137Z,23.70
2022-08-14T10:35:10.917Z,23.80
2022-08-14T10:37:49.437Z,23.90
2022-08-14T10:40:37.506Z,24.00
2022-08-14T10:43:25.294Z,24.10
2022-08-14T10:46:03.961Z,24.10
2022-08-14T10:49:04.230Z,24.20
2022-08-14T10:51:36.144Z,24.20
2022-08-14T10:54:26.267Z,24.30
2022-08-14T10:56:55.816Z,24.40
2022-08-14T10:59:31.261Z,24.50
2022-08-14T11:02:03.129Z,24.60
2022-08-14T11:04:30.274Z,24.70
2022-08-14T11:06:58.434Z,24.80
2022-08-14T11:09:26.327Z,25.00
2022-08-14T11:12:36.692Z,25.00
2022-08-14T11:15:03.206Z,25.00
2022-08-14T11:17:33.970Z,25.10
2022-08-14T11:20:02.807Z,25.20
2022-08-14T11:22:56.209Z,25.20
2022-08-14T11:25:20.394Z,25.40
2022-08-14T11:27:49.449Z,25.50
2022-08-14T11:30:51.406Z,25.60
2022-08-14T11:33:07.555Z,25.70
2022-08-14T11:35:43.975Z,25.70
2022-08-14T11:38:14.756Z,25.80
2022-08-14T11:40:47.197Z,25.80
2022-08-14T11:43:15.345Z,25.90
2022-08-14T11:45:48.599Z,25.90
2022-08-14T11:48:59.676Z,26.00
2022-08-14T11:51:14.472Z,26.10
2022-08-14T11:53:50.087Z,26.30
2022-08-14T11:56:17.664Z,26.40
2022-08-14T11:58:51.167Z,26.50
2022-08-14T12:01:28.440Z,26.50
2022-08-14T12:03:58.931Z,26.50
2022-08-14T12:06:39.232Z,26.50
2022-08-14T12:09:08.674Z,26.50
2022-08-14T12:11:43.754Z,26.50
2022-08-14T12:14:13.187Z,26.60
2022-08-14T12:17:09.526Z,26.70
2022-08-14T12:19:56.696Z,26.70
2022-08-14T12:22:34.019Z,26.90
2022-08-14T12:25:01.741Z,27.00
2022-08-14T12:27:37.869Z,27.10
2022-08-14T12:30:09.791Z,27.20
2022-08-14T12:32:47.274Z,27.30
2022-08-14T12:35:14.584Z,27.30
2022-08-14T12:37:49.060Z,27.40
2022-08-14T12:40:19.654Z,27.50
2022-08-14T12:42:53.843Z,27.60
2022-08-14T12:45:32.771Z,27.80
2022-08-14T12:48:21.337Z,28.00
2022-08-14T12:50:52.197Z,28.10
2022-08-14T12:53:21.093Z,28.30
2022-08-14T12:56:22.646Z,28.40
2022-08-14T12:58:54.909Z,28.60
2022-08-14T13:01:25.447Z,28.70
2022-08-14T13:04:12.587Z,28.90
2022-08-14T13:06:41.721Z,29.00
2022-08-14T13:09:14.067Z,29.20
2022-08-14T13:11:59.165Z,29.30
2022-08-14T13:14:38.730Z,29.50
2022-08-14T13:17:07.163Z,29.70
2022-08-14T13:19:35.789Z,29.80
2022-08-14T13:22:09.507Z,29.90
2022-08-14T13:24:39.478Z,30.10
2022-08-14T13:27:10.042Z,30.20
2022-08-14T13:29:46.908Z,30.30
2022-08-14T13:32:15.135Z,30.20
2022-08-14T13:34:45.369Z,30.20
2022-08-14T13:37:14.703Z,30.20
2022-08-14T13:39:56.223Z,30.20
2022-08-14T13:42:27.783Z,30.30
2022-08-14T13:45:00.338Z,30.40
2022-08-14T13:47:33.096Z,30.50
2022-08-14T13:50:04.771Z,30.50
2022-08-14T13:52:51.652Z,30.60
2022-08-14T13:55:25.882Z,30.80
2022-08-14T13:58:04.315Z,30.70
2022-08-14T14:00:53.041Z,30.70
2022-08-14T14:03:24.252Z,30.60
2022-08-14T14:05:54.325Z,30.60
2022-08-14T14:08:45.797Z,30.60
2022-08-14T14:11:13.190Z,30.70
2022-08-14T14:13:45.138Z,30.80
2022-08-14T14:16:15.535Z,30.90
2022-08-14T14:18:56.389Z,30.90
2022-08-14T14:21:28.994Z,31.00
2022-08-14T14:23:57.113Z,30.90
2022-08-14T14:26:24.886Z,30.80
2022-08-14T14:28:56.699Z,30.80
2022-08-14T14:31:30.035Z,30.90
2022-08-14T14:34:07.732Z,31.10
2022-08-14T14:36:50.151Z,31.10
2022-08-14T14:39:25.457Z,31.10
2022-08-14T14:41:56.754Z,31.00
2022-08-14T14:44:26.883Z,31.10
2022-08-14T14:46:53.798Z,31.00
2022-08-14T14:49:22.236Z,31.00
2022-08-14T14:51:58.947Z,31.00
2022-08-14T14:54:31.232Z,30.90
2022-08-14T14:57:09.260Z,30.90
2022-08-14T14:59:37.447Z,30.80
2022-08-14T15:02:09.306Z,30.80
2022-08-14T15:04:38.390Z,30.80
2022-08-14T15:07:07.070Z,30.80
2022-08-14T15:09:34.668Z,31.00
2022-08-14T15:12:05.535Z,31.20
2022-08-14T15:14:56.122Z,31.40
2022-08-14T15:17:40.803Z,31.50
2022-08-14T15:20:11.479Z,31.60
2022-08-14T15:22:50.935Z,31.60
2022-08-14T15:25:18.917Z,31.60
2022-08-14T15:27:50.115Z,31.70
2022-08-14T15:30:23.681Z,31.80
2022-08-14T15:32:53.079Z,31.90
2022-08-14T15:35:22.382Z,32.00
2022-08-14T15:37:55.478Z,32.20
2022-08-14T15:40:23.130Z,32.20
2022-08-14T15:42:50.113Z,32.30
2022-08-14T15:45:17.222Z,32.40
2022-08-14T15:47:44.368Z,32.50
2022-08-14T15:50:12.752Z,32.50
2022-08-14T15:52:42.855Z,32.50
2022-08-14T15:55:14.548Z,32.40
2022-08-14T15:58:02.004Z,32.40
2022-08-14T16:00:54.159Z,32.40
2022-08-14T16:03:27.990Z,32.40
2022-08-14T16:06:15.433Z,32.20
2022-08-14T16:08:58.522Z,32.10
2022-08-14T16:11:28.672Z,32.00
2022-08-14T16:13:59.487Z,31.80
2022-08-14T16:16:34.571Z,31.60
2022-08-14T16:19:19.343Z,31.60
2022-08-14T16:21:58.452Z,31.60
2022-08-14T16:25:02.127Z,31.50
2022-08-14T16:27:33.648Z,31.40
2022-08-14T16:30:06.380Z,31.30
2022-08-14T16:32:55.113Z,31.20
2022-08-14T16:35:42.593Z,31.10
2022-08-14T16:38:44.850Z,31.10
2022-08-14T16:41:23.078Z,31.00
2022-08-14T16:44:31.602Z,31.00
2022-08-14T16:47:05.650Z,30.90
2022-08-14T16:50:02.508Z,30.90
2022-08-14T16:52:25.794Z,30.90
2022-08-14T16:55:09.437Z,31.00
2022-08-14T16:57:58.620Z,31.00
2022-08-14T17:00:43.654Z,31.10
2022-08-14T17:03:12.279Z,31.10
2022-08-14T17:05:43.514Z,31.10
2022-08-14T17:08:32.563Z,31.10
2022-08-14T17:10:58.167Z,31.10
2022-08-14T17:13:58.595Z,31.10
2022-08-14T17:16:25.157Z,31.20
2022-08-14T17:19:00.549Z,31.20
2022-08-14T17:21:31.365Z,31.10
2022-08-14T17:24:51.643Z,31.10
2022-08-14T17:26:55.103Z,31.00
2022-08-14T17:29:22.449Z,30.90
2022-08-14T17:32:06.771Z,30.80
2022-08-14T17:34:53.819Z,30.70
2022-08-14T17:37:45.236Z,30.50
2022-08-14T17:40:16.524Z,30.40
2022-08-14T17:42:51.393Z,30.30
2022-08-14T17:45:43.202Z,30.20
2022-08-14T17:49:14.970Z,30.10
2022-08-14T17:51:17.062Z,29.90
2022-08-14T17:54:01.471Z,29.90
2022-08-14T17:56:31.808Z,29.70
2022-08-14T17:59:06.192Z,29.60
2022-08-14T18:01:46.539Z,29.60
2022-08-14T18:04:28.781Z,29.50
2022-08-14T18:07:16.050Z,29.40
2022-08-14T18:09:57.306Z,29.30
2022-08-14T18:12:36.830Z,29.20
2022-08-14T18:15:15.957Z,29.10
2022-08-14T18:17:52.907Z,29.10
2022-08-14T18:21:42.450Z,29.00
2022-08-14T18:23:13.502Z,28.90
2022-08-14T18:25:52.913Z,28.90
2022-08-14T18:28:51.061Z,28.80
2022-08-14T18:31:44.114Z,28.80
2022-08-14T18:34:31.230Z,28.80
2022-08-14T18:37:14.349Z,28.80
2022-08-14T18:40:02.540Z,28.70
2022-08-14T18:42:34.889Z,28.60
2022-08-14T18:45:12.338Z,28.60
2022-08-14T18:48:05.101Z,28.50
2022-08-14T18:50:32.143Z,28.40
2022-08-14T18:53:08.968Z,28.40
2022-08-14T18:55:37.609Z,28.30
2022-08-14T18:58:31.473Z,28.30
2022-08-14T19:01:04.542Z,28.30
2022-08-14T19:03:37.161Z,28.10
2022-08-14T19:06:10.868Z,28.00
2022-08-14T19:08:49.692Z,28.00
2022-08-14T19:11:32.533Z,27.90
2022-08-14T19:14:04.710Z,27.90
2022-08-14T19:16:36.938Z,27.80
2022-08-14T19:19:08.868Z,27.80
2022-08-14T19:21:40.807Z,27.70
2022-08-14T19:24:27.914Z,27.70
2022-08-14T19:27:22.938Z,27.70
2022-08-14T19:29:51.860Z,27.60
2022-08-14T19:32:40.351Z,27.60
2022-08-14T19:35:49.036Z,27.50
2022-08-14T19:38:47.888Z,27.40
2022-08-14T19:41:16.137Z,27.40
2022-08-14T19:43:55.838Z,27.40
2022-08-14T19:46:38.758Z,27.30
2022-08-14T19:49:21.586Z,27.20
2022-08-14T19:52:03.731Z,27.20
2022-08-14T19:54:37.009Z,27.10
2022-08-14T19:57:04.472Z,27.10
2022-08-14T19:59:36.531Z,27.00
2022-08-14T20:02:05.864Z,27.00
2022-08-14T20:04:46.415Z,27.00
2022-08-14T20:08:00.523Z,26.90
2022-08-14T20:11:07.094Z,26.90
2022-08-14T20:13:32.142Z,26.90
2022-08-14T20:16:12.296Z,26.80
2022-08-14T20:18:51.618Z,26.80
2022-08-14T20:21:21.502Z,26.80
2022-08-14T20:23:49.493Z,26.80
2022-08-14T20:26:31.684Z,26.80
2022-08-14T20:29:04.625Z,26.80
2022-08-14T20:31:37.348Z,26.80
2022-08-14T20:34:18.702Z,26.70
2022-08-14T20:37:01.871Z,26.70
2022-08-14T20:39:34.146Z,26.70
2022-08-14T20:42:30.380Z,26.60
2022-08-14T20:45:24.203Z,26.60
2022-08-14T20:48:07.221Z,26.60
2022-08-14T20:50:36.666Z,26.50
2022-08-14T20:53:27.468Z,26.50
2022-08-14T20:56:00.514Z,26.50
2022-08-14T20:58:43.409Z,26.40
2022-08-14T21:01:18.529Z,26.50
2022-08-14T21:03:57.924Z,26.40
2022-08-14T21:06:30.942Z,26.40
2022-08-14T21:09:18.923Z,26.40
2022-08-14T21:12:03.116Z,26.40
2022-08-14T21:14:30.135Z,26.30
2022-08-14T21:16:58.975Z,26.40
2022-08-14T21:19:26.847Z,26.30
2022-08-14T21:21:55.666Z,26.30
2022-08-14T21:24:39.750Z,26.30
2022-08-14T21:27:20.004Z,26.40
2022-08-14T21:29:56.014Z,26.40
2022-08-14T21:32:35.007Z,26.40
2022-08-14T21:35:09.875Z,26.40
2022-08-14T21:37:43.678Z,26.30
2022-08-14T21:40:33.239Z,26.30
2022-08-14T21:43:00.190Z,26.30
2022-08-14T21:45:27.077Z,26.30
2022-08-14T21:47:56.342Z,26.20
2022-08-14T21:50:39.844Z,26.20
2022-08-14T21:53:10.931Z,26.20
2022-08-14T21:55:37.961Z,26.20
2022-08-14T21:58:52.713Z,26.20
2022-08-14T22:00:54.002Z,26.20
2022-08-14T22:03:24.177Z,26.20
2022-08-14T22:05:53.196Z,26.20
2022-08-14T22:08:22.417Z,26.20
2022-08-14T22:10:54.612Z,26.10
2022-08-14T22:13:26.428Z,26.10
2022-08-14T22:15:59.609Z,26.10
2022-08-14T22:18:29.749Z,26.10
2022-08-14T22:20:57.387Z,26.20
2022-08-14T22:23:25.707Z,26.00
2022-08-14T22:25:53.746Z,26.00
2022-08-14T22:28:25.399Z,26.00
2022-08-14T22:30:54.942Z,26.00
2022-08-14T22:33:26.649Z,26.00
2022-08-14T22:35:58.891Z,26.00
2022-08-14T22:38:36.027Z,25.90
2022-08-14T22:41:25.371Z,25.90
2022-08-14T22:44:06.553Z,25.90
2022-08-14T22:46:33.641Z,25.80
2022-08-14T22:49:16.134Z,25.80
2022-08-14T22:51:48.738Z,25.80
2022-08-14T22:54:52.258Z,25.80
2022-08-14T22:57:05.105Z,25.70
2022-08-14T22:59:38.903Z,25.70
2022-08-14T23:02:12.671Z,25.70
2022-08-14T23:04:53.803Z,25.70
2022-08-14T23:07:25.910Z,25.60
2022-08-14T23:10:32.492Z,25.60
2022-08-14T23:13:00.256Z,25.60
2022-08-14T23:15:29.836Z,25.50
2022-08-14T23:17:57.510Z,25.50
2022-08-14T23:20:29.485Z,25.50
2022-08-14T23:22:57.798Z,25.40
2022-08-14T23:25:56.812Z,25.50
2022-08-14T23:28:33.431Z,25.40
2022-08-14T23:31:10.916Z,25.40
2022-08-14T23:33:45.611Z,25.40
2022-08-14T23:36:31.944Z,25.30
2022-08-14T23:39:00.220Z,25.20
2022-08-14T23:41:27.113Z,25.20
2022-08-14T23:44:15.313Z,25.20
2022-08-14T23:46:44.203Z,25.10
2022-08-14T23:49:12.402Z,25.10
2022-08-14T23:51:39.515Z,25.00
2022-08-14T23:54:48.392Z,25.00
2022-08-14T23:57:00.155Z,24.90
2022-08-14T23:59:30.263Z,24.90
